Valley Junction, WI

6:15 PM CDT on March 22, 2017 (GMT -0500)
MUP115 | | Change Station

Elev 974 ft 44.09 °N, 90.45 °W | Updated 1 hour ago

Mostly Cloudy
Mostly Cloudy
34.0 °F
Feels Like 34.0 °F
N
-
Wind Variable Wind from North

Today
High -- | Low -- °F
--% Chance of Precip.
Yesterday
High -- | Low -- °F
Precip. -- in
Pressure 30.50 in
Visibility 10.0 miles
Clouds Mostly Cloudy 25000 ft
Dew Point Not available.
Humidity Not available.
Rainfall in
Snow Depth Not available.
7:00 AM 7:17 PM
Waning Crescent, 28% visible
METAR KVOK 222258Z 11008KT 10SM BKN250 03/M14 A3044 RMK AO2A SLP326
Pressure 30.50 in
Visibility 10.0 miles
Clouds Mostly Cloudy 25000 ft
Dew Point Not available.
Humidity Not available.
Rainfall in
Snow Depth Not available.
7:00 AM 7:17 PM
Waning Crescent, 28% visible
METAR KVOK 222258Z 11008KT 10SM BKN250 03/M14 A3044 RMK AO2A SLP326

Get Severe Weather Alerts

Thanks for signing up!

Be on the lookout for a verification email in your inbox.

You'll start receiving the daily forecast at 8 AM.

×

10-Day Weather Forecast

Almanac

Astronomy

Mar. 22, 2017 Rise Set
Actual Time
Civil Twilight
Nautical Twilight
Astronomical Twilight
Moon
Length of Visible Light
Length of Day
Tomorrow will be .
, % of the Moon is Illuminated

Today's Extremes

State Highs State Lows

Community

WunderPhotos

Upload Photos

1,962,540 photos uploaded!

WunderBlog® & News

Nearby

Air Quality

  Air Quality AQ Index Pollutant
Not available.

Snow Depth

Station Depth Elevation

Earthquake Activity

City Distance Mag. Time & Date
Minimum magnitude displayed is 2.5.

Earthquake Activity

City Distance Mag. Time & Date
Minimum magnitude displayed is 2.5.

Coastal Water Temperatures

Place Temperature

Stations

Nearby Weather Stations

Station Location Temp. Windchill Dew Point Humidity Wind Precip. Elev Updated Type
                   

Watches & Warnings

There are currently no watches in effect.